sensor_id;sensor_type;location;lat;lon;timestamp;P1;durP1;ratioP1;P2;durP2;ratioP2
6249;SDS011;3158;52.148;11.568;2023-05-07T00:03:44;4.90;;;4.32;;
6249;SDS011;3158;52.148;11.568;2023-05-07T00:08:45;5.93;;;5.38;;
6249;SDS011;3158;52.148;11.568;2023-05-07T00:13:47;5.78;;;4.70;;
6249;SDS011;3158;52.148;11.568;2023-05-07T00:18:48;7.50;;;4.65;;
6249;SDS011;3158;52.148;11.568;2023-05-07T00:23:49;5.13;;;4.70;;
6249;SDS011;3158;52.148;11.568;2023-05-07T00:28:50;4.63;;;4.22;;
6249;SDS011;3158;52.148;11.568;2023-05-07T00:33:51;4.05;;;3.80;;
6249;SDS011;3158;52.148;11.568;2023-05-07T00:38:53;4.10;;;3.75;;
6249;SDS011;3158;52.148;11.568;2023-05-07T00:43:55;4.30;;;4.07;;
6249;SDS011;3158;52.148;11.568;2023-05-07T00:48:57;4.22;;;3.70;;
6249;SDS011;3158;52.148;11.568;2023-05-07T00:53:59;4.38;;;3.97;;
6249;SDS011;3158;52.148;11.568;2023-05-07T00:59:01;3.78;;;3.58;;
6249;SDS011;3158;52.148;11.568;2023-05-07T01:04:03;4.00;;;3.72;;
6249;SDS011;3158;52.148;11.568;2023-05-07T01:09:04;3.90;;;3.70;;
6249;SDS011;3158;52.148;11.568;2023-05-07T01:14:05;4.10;;;3.75;;
6249;SDS011;3158;52.148;11.568;2023-05-07T01:19:06;4.28;;;4.05;;
6249;SDS011;3158;52.148;11.568;2023-05-07T01:24:08;4.03;;;3.72;;
6249;SDS011;3158;52.148;11.568;2023-05-07T01:29:10;4.43;;;4.05;;
6249;SDS011;3158;52.148;11.568;2023-05-07T01:34:11;4.20;;;3.90;;
6249;SDS011;3158;52.148;11.568;2023-05-07T01:39:13;5.60;;;4.40;;
6249;SDS011;3158;52.148;11.568;2023-05-07T01:44:14;3.92;;;3.72;;
6249;SDS011;3158;52.148;11.568;2023-05-07T01:49:16;4.95;;;4.60;;
6249;SDS011;3158;52.148;11.568;2023-05-07T01:54:17;5.32;;;4.82;;
6249;SDS011;3158;52.148;11.568;2023-05-07T01:59:19;4.63;;;4.22;;
6249;SDS011;3158;52.148;11.568;2023-05-07T02:04:20;4.35;;;4.03;;
6249;SDS011;3158;52.148;11.568;2023-05-07T02:09:22;4.50;;;4.20;;
6249;SDS011;3158;52.148;11.568;2023-05-07T02:14:24;4.68;;;4.38;;
6249;SDS011;3158;52.148;11.568;2023-05-07T02:19:26;5.60;;;4.35;;
6249;SDS011;3158;52.148;11.568;2023-05-07T02:24:27;4.88;;;4.47;;
6249;SDS011;3158;52.148;11.568;2023-05-07T02:29:28;4.72;;;4.32;;
6249;SDS011;3158;52.148;11.568;2023-05-07T02:34:29;4.88;;;4.47;;
6249;SDS011;3158;52.148;11.568;2023-05-07T02:39:31;4.47;;;4.07;;
6249;SDS011;3158;52.148;11.568;2023-05-07T02:44:32;3.83;;;3.60;;
6249;SDS011;3158;52.148;11.568;2023-05-07T02:49:33;4.10;;;3.80;;
6249;SDS011;3158;52.148;11.568;2023-05-07T02:54:34;4.43;;;4.13;;
6249;SDS011;3158;52.148;11.568;2023-05-07T02:59:35;4.30;;;3.95;;
6249;SDS011;3158;52.148;11.568;2023-05-07T03:04:36;4.65;;;4.25;;
6249;SDS011;3158;52.148;11.568;2023-05-07T03:09:37;4.45;;;4.07;;
6249;SDS011;3158;52.148;11.568;2023-05-07T03:14:39;5.72;;;4.50;;
6249;SDS011;3158;52.148;11.568;2023-05-07T03:19:40;4.38;;;4.07;;
6249;SDS011;3158;52.148;11.568;2023-05-07T03:24:41;4.43;;;4.03;;
6249;SDS011;3158;52.148;11.568;2023-05-07T03:29:42;4.53;;;4.18;;
6249;SDS011;3158;52.148;11.568;2023-05-07T03:34:43;4.72;;;4.32;;
6249;SDS011;3158;52.148;11.568;2023-05-07T03:39:46;3.92;;;3.63;;
6249;SDS011;3158;52.148;11.568;2023-05-07T03:44:47;5.72;;;4.60;;
6249;SDS011;3158;52.148;11.568;2023-05-07T03:49:48;4.28;;;3.97;;
6249;SDS011;3158;52.148;11.568;2023-05-07T03:54:50;4.10;;;3.90;;
6249;SDS011;3158;52.148;11.568;2023-05-07T03:59:52;4.78;;;4.28;;
6249;SDS011;3158;52.148;11.568;2023-05-07T04:04:53;4.95;;;4.32;;
6249;SDS011;3158;52.148;11.568;2023-05-07T04:09:54;5.03;;;4.32;;
6249;SDS011;3158;52.148;11.568;2023-05-07T04:14:55;4.75;;;4.30;;
6249;SDS011;3158;52.148;11.568;2023-05-07T04:19:58;4.75;;;4.30;;
6249;SDS011;3158;52.148;11.568;2023-05-07T04:25:00;4.57;;;4.18;;
6249;SDS011;3158;52.148;11.568;2023-05-07T04:30:01;4.68;;;4.28;;
6249;SDS011;3158;52.148;11.568;2023-05-07T04:35:07;5.25;;;4.72;;
6249;SDS011;3158;52.148;11.568;2023-05-07T04:40:09;5.53;;;5.00;;
6249;SDS011;3158;52.148;11.568;2023-05-07T04:45:10;4.45;;;3.95;;
6249;SDS011;3158;52.148;11.568;2023-05-07T04:50:14;4.50;;;4.20;;
6249;SDS011;3158;52.148;11.568;2023-05-07T04:55:18;5.22;;;3.90;;
6249;SDS011;3158;52.148;11.568;2023-05-07T05:00:19;3.78;;;3.58;;
6249;SDS011;3158;52.148;11.568;2023-05-07T05:05:22;3.83;;;3.55;;
6249;SDS011;3158;52.148;11.568;2023-05-07T05:10:26;4.90;;;3.65;;
6249;SDS011;3158;52.148;11.568;2023-05-07T05:15:27;5.18;;;3.65;;
6249;SDS011;3158;52.148;11.568;2023-05-07T05:20:28;3.05;;;2.90;;
6249;SDS011;3158;52.148;11.568;2023-05-07T05:25:29;3.22;;;2.95;;
6249;SDS011;3158;52.148;11.568;2023-05-07T05:30:32;3.78;;;3.47;;
6249;SDS011;3158;52.148;11.568;2023-05-07T05:35:33;2.90;;;2.80;;
6249;SDS011;3158;52.148;11.568;2023-05-07T05:40:38;3.10;;;2.95;;
6249;SDS011;3158;52.148;11.568;2023-05-07T05:45:39;3.20;;;2.95;;
6249;SDS011;3158;52.148;11.568;2023-05-07T05:50:41;1.85;;;1.75;;
6249;SDS011;3158;52.148;11.568;2023-05-07T05:55:43;3.35;;;3.05;;
6249;SDS011;3158;52.148;11.568;2023-05-07T06:00:46;3.08;;;2.67;;
6249;SDS011;3158;52.148;11.568;2023-05-07T06:05:49;3.47;;;3.28;;
6249;SDS011;3158;52.148;11.568;2023-05-07T06:10:50;3.00;;;2.80;;
6249;SDS011;3158;52.148;11.568;2023-05-07T06:15:51;3.70;;;3.40;;
6249;SDS011;3158;52.148;11.568;2023-05-07T06:20:52;2.67;;;2.50;;
6249;SDS011;3158;52.148;11.568;2023-05-07T06:25:58;3.25;;;3.05;;
6249;SDS011;3158;52.148;11.568;2023-05-07T06:31:14;2.53;;;2.42;;
6249;SDS011;3158;52.148;11.568;2023-05-07T06:36:20;2.65;;;2.45;;
6249;SDS011;3158;52.148;11.568;2023-05-07T06:41:21;3.65;;;3.35;;
6249;SDS011;3158;52.148;11.568;2023-05-07T06:46:23;3.40;;;3.20;;
6249;SDS011;3158;52.148;11.568;2023-05-07T06:51:24;3.22;;;2.97;;
6249;SDS011;3158;52.148;11.568;2023-05-07T06:56:25;3.30;;;3.05;;
6249;SDS011;3158;52.148;11.568;2023-05-07T07:01:27;3.60;;;3.50;;
6249;SDS011;3158;52.148;11.568;2023-05-07T07:06:29;3.42;;;3.22;;
6249;SDS011;3158;52.148;11.568;2023-05-07T07:11:32;3.90;;;3.60;;
6249;SDS011;3158;52.148;11.568;2023-05-07T07:16:33;3.80;;;3.60;;
6249;SDS011;3158;52.148;11.568;2023-05-07T07:21:35;4.47;;;4.15;;
6249;SDS011;3158;52.148;11.568;2023-05-07T07:26:36;4.10;;;3.78;;
6249;SDS011;3158;52.148;11.568;2023-05-07T07:31:38;3.53;;;3.33;;
6249;SDS011;3158;52.148;11.568;2023-05-07T07:36:39;2.00;;;2.00;;
6249;SDS011;3158;52.148;11.568;2023-05-07T07:41:40;3.95;;;3.50;;
6249;SDS011;3158;52.148;11.568;2023-05-07T07:46:41;3.50;;;3.35;;
6249;SDS011;3158;52.148;11.568;2023-05-07T07:51:43;3.60;;;3.40;;
6249;SDS011;3158;52.148;11.568;2023-05-07T07:56:45;3.58;;;3.28;;
6249;SDS011;3158;52.148;11.568;2023-05-07T08:01:48;4.03;;;3.72;;
6249;SDS011;3158;52.148;11.568;2023-05-07T08:06:51;4.63;;;4.25;;
6249;SDS011;3158;52.148;11.568;2023-05-07T08:11:53;3.90;;;3.70;;
6249;SDS011;3158;52.148;11.568;2023-05-07T08:16:54;4.00;;;3.78;;
6249;SDS011;3158;52.148;11.568;2023-05-07T08:21:56;4.35;;;3.95;;
6249;SDS011;3158;52.148;11.568;2023-05-07T08:26:58;4.57;;;4.18;;
6249;SDS011;3158;52.148;11.568;2023-05-07T08:32:00;3.30;;;3.08;;
6249;SDS011;3158;52.148;11.568;2023-05-07T08:37:01;4.15;;;3.75;;
6249;SDS011;3158;52.148;11.568;2023-05-07T08:42:03;5.28;;;4.82;;
6249;SDS011;3158;52.148;11.568;2023-05-07T08:47:07;4.55;;;4.18;;
6249;SDS011;3158;52.148;11.568;2023-05-07T08:52:09;4.85;;;4.45;;
6249;SDS011;3158;52.148;11.568;2023-05-07T08:57:10;4.40;;;4.07;;
6249;SDS011;3158;52.148;11.568;2023-05-07T09:02:12;4.20;;;3.92;;
6249;SDS011;3158;52.148;11.568;2023-05-07T09:07:14;4.35;;;4.03;;
6249;SDS011;3158;52.148;11.568;2023-05-07T09:12:17;3.80;;;3.60;;
6249;SDS011;3158;52.148;11.568;2023-05-07T09:17:19;4.30;;;4.00;;
6249;SDS011;3158;52.148;11.568;2023-05-07T09:22:20;4.47;;;3.83;;
6249;SDS011;3158;52.148;11.568;2023-05-07T09:27:30;4.20;;;3.78;;
6249;SDS011;3158;52.148;11.568;2023-05-07T09:32:35;4.72;;;4.28;;
6249;SDS011;3158;52.148;11.568;2023-05-07T09:37:40;3.50;;;3.30;;
6249;SDS011;3158;52.148;11.568;2023-05-07T09:42:41;4.00;;;3.78;;
6249;SDS011;3158;52.148;11.568;2023-05-07T09:47:43;4.15;;;3.85;;
6249;SDS011;3158;52.148;11.568;2023-05-07T09:52:48;10.73;;;8.25;;
6249;SDS011;3158;52.148;11.568;2023-05-07T09:57:50;5.20;;;4.70;;
6249;SDS011;3158;52.148;11.568;2023-05-07T10:02:52;4.90;;;4.38;;
6249;SDS011;3158;52.148;11.568;2023-05-07T10:07:59;6.50;;;5.30;;
6249;SDS011;3158;52.148;11.568;2023-05-07T10:13:01;4.60;;;4.20;;
6249;SDS011;3158;52.148;11.568;2023-05-07T10:18:07;4.97;;;4.53;;
6249;SDS011;3158;52.148;11.568;2023-05-07T10:23:10;4.10;;;3.88;;
6249;SDS011;3158;52.148;11.568;2023-05-07T10:28:17;3.88;;;3.60;;
6249;SDS011;3158;52.148;11.568;2023-05-07T10:33:21;4.38;;;4.15;;
6249;SDS011;3158;52.148;11.568;2023-05-07T10:38:25;4.38;;;4.05;;
6249;SDS011;3158;52.148;11.568;2023-05-07T10:43:37;3.45;;;3.25;;
6249;SDS011;3158;52.148;11.568;2023-05-07T11:04:30;4.25;;;3.95;;
6249;SDS011;3158;52.148;11.568;2023-05-07T11:10:01;4.00;;;3.70;;
6249;SDS011;3158;52.148;11.568;2023-05-07T11:26:04;4.43;;;4.03;;
6249;SDS011;3158;52.148;11.568;2023-05-07T11:31:05;3.72;;;3.53;;
6249;SDS011;3158;52.148;11.568;2023-05-07T11:36:08;3.40;;;3.25;;
6249;SDS011;3158;52.148;11.568;2023-05-07T11:41:15;3.40;;;3.10;;
6249;SDS011;3158;52.148;11.568;2023-05-07T11:46:16;3.17;;;2.97;;
6249;SDS011;3158;52.148;11.568;2023-05-07T11:51:21;3.60;;;3.33;;
6249;SDS011;3158;52.148;11.568;2023-05-07T11:56:22;2.80;;;2.22;;
6249;SDS011;3158;52.148;11.568;2023-05-07T12:01:23;4.03;;;3.17;;
6249;SDS011;3158;52.148;11.568;2023-05-07T12:06:24;2.30;;;2.17;;
6249;SDS011;3158;52.148;11.568;2023-05-07T12:11:25;3.28;;;3.08;;
6249;SDS011;3158;52.148;11.568;2023-05-07T12:16:27;3.75;;;3.42;;
6249;SDS011;3158;52.148;11.568;2023-05-07T12:21:28;2.90;;;2.80;;
6249;SDS011;3158;52.148;11.568;2023-05-07T12:26:29;2.78;;;2.58;;
6249;SDS011;3158;52.148;11.568;2023-05-07T12:31:30;2.22;;;2.13;;
6249;SDS011;3158;52.148;11.568;2023-05-07T12:36:38;2.65;;;2.55;;
6249;SDS011;3158;52.148;11.568;2023-05-07T12:41:52;2.50;;;2.50;;
6249;SDS011;3158;52.148;11.568;2023-05-07T12:46:53;2.78;;;2.67;;
6249;SDS011;3158;52.148;11.568;2023-05-07T12:51:54;3.33;;;3.05;;
6249;SDS011;3158;52.148;11.568;2023-05-07T12:57:02;2.63;;;2.50;;
6249;SDS011;3158;52.148;11.568;2023-05-07T13:02:05;3.15;;;3.05;;
6249;SDS011;3158;52.148;11.568;2023-05-07T13:07:06;2.78;;;2.67;;
6249;SDS011;3158;52.148;11.568;2023-05-07T13:12:07;2.78;;;2.60;;
6249;SDS011;3158;52.148;11.568;2023-05-07T13:17:08;3.03;;;2.83;;
6249;SDS011;3158;52.148;11.568;2023-05-07T13:22:09;2.38;;;2.28;;
6249;SDS011;3158;52.148;11.568;2023-05-07T13:27:11;3.30;;;3.10;;
6249;SDS011;3158;52.148;11.568;2023-05-07T13:32:12;2.25;;;2.15;;
6249;SDS011;3158;52.148;11.568;2023-05-07T13:37:13;3.45;;;3.33;;
6249;SDS011;3158;52.148;11.568;2023-05-07T13:42:14;3.40;;;3.30;;
6249;SDS011;3158;52.148;11.568;2023-05-07T13:47:15;3.65;;;3.45;;
6249;SDS011;3158;52.148;11.568;2023-05-07T13:52:16;3.40;;;3.30;;
6249;SDS011;3158;52.148;11.568;2023-05-07T13:57:17;2.67;;;2.58;;
6249;SDS011;3158;52.148;11.568;2023-05-07T14:02:18;3.75;;;2.90;;
6249;SDS011;3158;52.148;11.568;2023-05-07T14:07:20;2.47;;;2.38;;
6249;SDS011;3158;52.148;11.568;2023-05-07T14:12:21;2.70;;;2.60;;
6249;SDS011;3158;52.148;11.568;2023-05-07T14:17:22;2.20;;;2.15;;
6249;SDS011;3158;52.148;11.568;2023-05-07T14:22:25;1.80;;;1.70;;
6249;SDS011;3158;52.148;11.568;2023-05-07T14:27:26;2.63;;;1.77;;
6249;SDS011;3158;52.148;11.568;2023-05-07T14:32:27;1.52;;;1.52;;
6249;SDS011;3158;52.148;11.568;2023-05-07T14:37:28;2.28;;;1.92;;
6249;SDS011;3158;52.148;11.568;2023-05-07T14:42:30;2.90;;;2.22;;
6249;SDS011;3158;52.148;11.568;2023-05-07T14:47:31;2.35;;;2.30;;
6249;SDS011;3158;52.148;11.568;2023-05-07T14:52:32;2.40;;;2.30;;
6249;SDS011;3158;52.148;11.568;2023-05-07T14:57:33;2.33;;;2.22;;
6249;SDS011;3158;52.148;11.568;2023-05-07T15:02:35;1.98;;;1.98;;
6249;SDS011;3158;52.148;11.568;2023-05-07T15:07:36;1.75;;;1.75;;
6249;SDS011;3158;52.148;11.568;2023-05-07T15:12:37;1.60;;;1.50;;
6249;SDS011;3158;52.148;11.568;2023-05-07T15:17:38;1.58;;;1.58;;
6249;SDS011;3158;52.148;11.568;2023-05-07T15:22:39;1.42;;;1.13;;
6249;SDS011;3158;52.148;11.568;2023-05-07T15:27:41;1.73;;;1.73;;
6249;SDS011;3158;52.148;11.568;2023-05-07T15:32:42;1.58;;;1.58;;
6249;SDS011;3158;52.148;11.568;2023-05-07T15:37:43;1.30;;;1.30;;
6249;SDS011;3158;52.148;11.568;2023-05-07T15:42:45;1.80;;;1.10;;
6249;SDS011;3158;52.148;11.568;2023-05-07T15:47:46;1.40;;;1.40;;
6249;SDS011;3158;52.148;11.568;2023-05-07T15:52:47;1.67;;;1.58;;
6249;SDS011;3158;52.148;11.568;2023-05-07T15:57:48;1.65;;;1.65;;
6249;SDS011;3158;52.148;11.568;2023-05-07T16:02:50;1.73;;;1.63;;
6249;SDS011;3158;52.148;11.568;2023-05-07T16:07:51;1.50;;;1.50;;
6249;SDS011;3158;52.148;11.568;2023-05-07T16:12:52;1.50;;;1.50;;
6249;SDS011;3158;52.148;11.568;2023-05-07T16:17:53;2.78;;;1.83;;
6249;SDS011;3158;52.148;11.568;2023-05-07T16:22:57;1.88;;;1.88;;
6249;SDS011;3158;52.148;11.568;2023-05-07T16:27:58;1.83;;;1.73;;
6249;SDS011;3158;52.148;11.568;2023-05-07T16:32:59;2.95;;;1.50;;
6249;SDS011;3158;52.148;11.568;2023-05-07T16:38:00;1.50;;;1.40;;
6249;SDS011;3158;52.148;11.568;2023-05-07T16:43:08;1.10;;;1.10;;
6249;SDS011;3158;52.148;11.568;2023-05-07T16:48:09;1.85;;;1.33;;
6249;SDS011;3158;52.148;11.568;2023-05-07T16:53:10;0.80;;;0.80;;
6249;SDS011;3158;52.148;11.568;2023-05-07T16:58:11;1.70;;;1.60;;
6249;SDS011;3158;52.148;11.568;2023-05-07T17:03:14;1.10;;;1.10;;
6249;SDS011;3158;52.148;11.568;2023-05-07T17:08:15;1.58;;;1.58;;
6249;SDS011;3158;52.148;11.568;2023-05-07T17:13:16;1.13;;;1.13;;
6249;SDS011;3158;52.148;11.568;2023-05-07T17:18:17;1.30;;;1.30;;
6249;SDS011;3158;52.148;11.568;2023-05-07T17:23:18;1.48;;;1.48;;
6249;SDS011;3158;52.148;11.568;2023-05-07T17:28:19;1.77;;;1.40;;
6249;SDS011;3158;52.148;11.568;2023-05-07T17:33:20;1.75;;;1.52;;
6249;SDS011;3158;52.148;11.568;2023-05-07T17:38:21;1.33;;;1.33;;
6249;SDS011;3158;52.148;11.568;2023-05-07T17:43:22;1.30;;;1.30;;
6249;SDS011;3158;52.148;11.568;2023-05-07T17:48:23;2.13;;;2.13;;
6249;SDS011;3158;52.148;11.568;2023-05-07T17:53:24;2.08;;;1.95;;
6249;SDS011;3158;52.148;11.568;2023-05-07T17:58:26;2.17;;;2.17;;
6249;SDS011;3158;52.148;11.568;2023-05-07T18:03:27;2.22;;;2.22;;
6249;SDS011;3158;52.148;11.568;2023-05-07T18:08:29;2.60;;;2.40;;
6249;SDS011;3158;52.148;11.568;2023-05-07T18:13:30;2.80;;;2.60;;
6249;SDS011;3158;52.148;11.568;2023-05-07T18:18:31;1.58;;;1.50;;
6249;SDS011;3158;52.148;11.568;2023-05-07T18:23:34;3.20;;;2.97;;
6249;SDS011;3158;52.148;11.568;2023-05-07T18:28:35;2.58;;;2.42;;
6249;SDS011;3158;52.148;11.568;2023-05-07T18:33:36;1.75;;;1.65;;
6249;SDS011;3158;52.148;11.568;2023-05-07T18:38:37;2.30;;;2.20;;
6249;SDS011;3158;52.148;11.568;2023-05-07T18:43:38;2.30;;;2.25;;
6249;SDS011;3158;52.148;11.568;2023-05-07T18:48:39;2.42;;;2.22;;
6249;SDS011;3158;52.148;11.568;2023-05-07T18:53:40;2.47;;;2.40;;
6249;SDS011;3158;52.148;11.568;2023-05-07T18:58:41;2.45;;;2.25;;
6249;SDS011;3158;52.148;11.568;2023-05-07T19:03:42;2.00;;;2.00;;
6249;SDS011;3158;52.148;11.568;2023-05-07T19:08:43;2.38;;;2.28;;
6249;SDS011;3158;52.148;11.568;2023-05-07T19:13:44;1.85;;;1.77;;
6249;SDS011;3158;52.148;11.568;2023-05-07T19:18:46;1.52;;;1.52;;
6249;SDS011;3158;52.148;11.568;2023-05-07T19:23:47;1.95;;;1.95;;
6249;SDS011;3158;52.148;11.568;2023-05-07T19:28:50;3.03;;;1.67;;
6249;SDS011;3158;52.148;11.568;2023-05-07T19:33:51;2.13;;;2.13;;
6249;SDS011;3158;52.148;11.568;2023-05-07T19:38:53;2.25;;;2.08;;
6249;SDS011;3158;52.148;11.568;2023-05-07T19:43:54;1.70;;;1.60;;
6249;SDS011;3158;52.148;11.568;2023-05-07T19:48:55;1.67;;;1.67;;
6249;SDS011;3158;52.148;11.568;2023-05-07T19:53:57;1.73;;;1.63;;
6249;SDS011;3158;52.148;11.568;2023-05-07T19:58:58;1.95;;;1.95;;
6249;SDS011;3158;52.148;11.568;2023-05-07T20:03:59;1.92;;;1.85;;
6249;SDS011;3158;52.148;11.568;2023-05-07T20:09:00;1.90;;;1.80;;
6249;SDS011;3158;52.148;11.568;2023-05-07T20:14:01;2.20;;;2.10;;
6249;SDS011;3158;52.148;11.568;2023-05-07T20:19:04;2.03;;;1.90;;
6249;SDS011;3158;52.148;11.568;2023-05-07T20:24:06;2.20;;;2.20;;
6249;SDS011;3158;52.148;11.568;2023-05-07T20:29:07;2.40;;;2.30;;
6249;SDS011;3158;52.148;11.568;2023-05-07T20:34:08;2.03;;;1.92;;
6249;SDS011;3158;52.148;11.568;2023-05-07T20:39:09;2.38;;;2.28;;
6249;SDS011;3158;52.148;11.568;2023-05-07T20:44:13;1.50;;;1.50;;
6249;SDS011;3158;52.148;11.568;2023-05-07T20:49:15;5.45;;;2.30;;
6249;SDS011;3158;52.148;11.568;2023-05-07T20:54:16;2.13;;;2.13;;
6249;SDS011;3158;52.148;11.568;2023-05-07T20:59:17;1.95;;;1.95;;
6249;SDS011;3158;52.148;11.568;2023-05-07T21:04:18;2.20;;;2.10;;
6249;SDS011;3158;52.148;11.568;2023-05-07T21:09:20;1.92;;;1.92;;
6249;SDS011;3158;52.148;11.568;2023-05-07T21:14:21;2.40;;;2.30;;
6249;SDS011;3158;52.148;11.568;2023-05-07T21:19:22;2.53;;;2.42;;
6249;SDS011;3158;52.148;11.568;2023-05-07T21:24:23;2.10;;;2.03;;
6249;SDS011;3158;52.148;11.568;2023-05-07T21:29:25;2.60;;;2.38;;
6249;SDS011;3158;52.148;11.568;2023-05-07T21:34:26;1.92;;;1.80;;
6249;SDS011;3158;52.148;11.568;2023-05-07T21:39:27;2.50;;;2.40;;
6249;SDS011;3158;52.148;11.568;2023-05-07T21:44:28;2.45;;;2.35;;
6249;SDS011;3158;52.148;11.568;2023-05-07T21:49:29;2.40;;;2.30;;
6249;SDS011;3158;52.148;11.568;2023-05-07T21:54:30;2.53;;;2.33;;
6249;SDS011;3158;52.148;11.568;2023-05-07T21:59:31;2.33;;;2.33;;
6249;SDS011;3158;52.148;11.568;2023-05-07T22:04:36;2.22;;;2.20;;
6249;SDS011;3158;52.148;11.568;2023-05-07T22:09:37;3.72;;;2.13;;
6249;SDS011;3158;52.148;11.568;2023-05-07T22:14:38;2.72;;;2.63;;
6249;SDS011;3158;52.148;11.568;2023-05-07T22:19:39;2.28;;;2.15;;
6249;SDS011;3158;52.148;11.568;2023-05-07T22:24:40;2.42;;;2.33;;
6249;SDS011;3158;52.148;11.568;2023-05-07T22:29:41;2.60;;;2.50;;
6249;SDS011;3158;52.148;11.568;2023-05-07T22:34:42;2.10;;;2.00;;
6249;SDS011;3158;52.148;11.568;2023-05-07T22:39:43;2.50;;;2.40;;
6249;SDS011;3158;52.148;11.568;2023-05-07T22:44:44;2.92;;;2.83;;
6249;SDS011;3158;52.148;11.568;2023-05-07T22:49:45;3.17;;;2.97;;
6249;SDS011;3158;52.148;11.568;2023-05-07T22:54:46;2.90;;;2.80;;
6249;SDS011;3158;52.148;11.568;2023-05-07T22:59:51;3.22;;;3.03;;
6249;SDS011;3158;52.148;11.568;2023-05-07T23:04:53;2.88;;;2.78;;
6249;SDS011;3158;52.148;11.568;2023-05-07T23:09:54;2.40;;;2.33;;
6249;SDS011;3158;52.148;11.568;2023-05-07T23:14:55;2.20;;;2.20;;
6249;SDS011;3158;52.148;11.568;2023-05-07T23:19:56;2.42;;;2.33;;
6249;SDS011;3158;52.148;11.568;2023-05-07T23:24:57;2.88;;;2.60;;
6249;SDS011;3158;52.148;11.568;2023-05-07T23:29:58;2.55;;;2.45;;
6249;SDS011;3158;52.148;11.568;2023-05-07T23:34:59;5.97;;;2.22;;
6249;SDS011;3158;52.148;11.568;2023-05-07T23:40:00;2.30;;;2.30;;
6249;SDS011;3158;52.148;11.568;2023-05-07T23:45:01;2.55;;;2.47;;
6249;SDS011;3158;52.148;11.568;2023-05-07T23:50:02;3.05;;;2.95;;
6249;SDS011;3158;52.148;11.568;2023-05-07T23:55:03;2.33;;;2.33;;
